Time;durP1;ratioP1;P1;durP2;ratioP2;P2;SDS_P1;SDS_P2;PMS_P1;PMS_P2;Temp;Humidity;BMP_temperature;BMP_pressure;BME280_temperature;BME280_humidity;BME280_pressure;Samples;Min_cycle;Max_cycle;Signal;HPM_P1;HPM_P2
2022/03/13 00:02:15;;;;;;;11.95;5.00;;;;;;;;;;5035015;28;20468;-74
2022/03/13 00:04:43;;;;;;;12.68;4.85;;;;;;;;;;5016805;28;20064;-73
2022/03/13 00:07:14;;;;;;;8.32;4.47;;;;;;;;;;5030801;28;20022;-73
2022/03/13 00:09:40;;;;;;;7.47;3.60;;;;;;;;;;5035183;28;20032;-74
2022/03/13 00:12:08;;;;;;;7.90;4.85;;;;;;;;;;5034967;28;20029;-74
2022/03/13 00:14:35;;;;;;;8.45;4.05;;;;;;;;;;5034901;28;20428;-75
2022/03/13 00:17:01;;;;;;;9.05;4.47;;;;;;;;;;5034368;28;20128;-75
2022/03/13 00:19:30;;;;;;;10.25;4.28;;;;;;;;;;5034166;28;20064;-74
2022/03/13 00:21:56;;;;;;;8.50;4.10;;;;;;;;;;5034427;28;20101;-74
2022/03/13 00:24:23;;;;;;;7.30;3.80;;;;;;;;;;5027758;28;20053;-74
2022/03/13 00:26:52;;;;;;;6.47;3.58;;;;;;;;;;5034617;28;20034;-74
2022/03/13 00:29:21;;;;;;;10.25;3.50;;;;;;;;;;5034235;28;20025;-74
2022/03/13 00:31:48;;;;;;;6.10;3.42;;;;;;;;;;5032860;28;20041;-74
2022/03/13 00:34:14;;;;;;;7.05;3.15;;;;;;;;;;5034608;28;20368;-73
2022/03/13 00:36:41;;;;;;;6.00;3.35;;;;;;;;;;5035127;28;20028;-73
2022/03/13 00:39:07;;;;;;;6.22;2.75;;;;;;;;;;5034767;28;20439;-74
2022/03/13 00:41:34;;;;;;;7.22;2.80;;;;;;;;;;5033845;28;20022;-75
2022/03/13 00:44:00;;;;;;;7.40;3.10;;;;;;;;;;5033266;28;20021;-75
2022/03/13 00:46:26;;;;;;;5.10;3.45;;;;;;;;;;5031406;28;20018;-74
2022/03/13 00:48:53;;;;;;;6.30;2.70;;;;;;;;;;5033549;28;20022;-75
2022/03/13 00:51:19;;;;;;;8.18;3.05;;;;;;;;;;5031810;28;20156;-75
2022/03/13 00:53:46;;;;;;;6.53;3.30;;;;;;;;;;5034071;28;20036;-75
2022/03/13 00:56:12;;;;;;;9.90;3.60;;;;;;;;;;5027413;28;20109;-75
2022/03/13 00:58:40;;;;;;;6.30;2.72;;;;;;;;;;5028840;28;20040;-74
2022/03/13 01:01:07;;;;;;;7.25;2.75;;;;;;;;;;5031822;28;20034;-74
2022/03/13 01:03:36;;;;;;;7.40;3.25;;;;;;;;;;5013816;28;20392;-74
2022/03/13 01:06:07;;;;;;;5.22;2.58;;;;;;;;;;5029428;28;20041;-74
2022/03/13 01:08:33;;;;;;;6.10;3.03;;;;;;;;;;5033102;28;20021;-75
2022/03/13 01:11:00;;;;;;;6.32;3.00;;;;;;;;;;5033559;28;20021;-73
2022/03/13 01:13:27;;;;;;;8.23;3.50;;;;;;;;;;5029547;28;20021;-74
2022/03/13 01:16:00;;;;;;;8.25;2.97;;;;;;;;;;5023818;28;20052;-74
2022/03/13 01:18:27;;;;;;;7.25;3.22;;;;;;;;;;5027620;28;20431;-74
2022/03/13 01:20:53;;;;;;;8.23;3.40;;;;;;;;;;5033413;28;20075;-75
2022/03/13 01:23:20;;;;;;;6.97;2.80;;;;;;;;;;5032234;28;20036;-75
2022/03/13 01:26:06;;;;;;;11.15;3.97;;;;;;;;;;5033184;28;20108;-75
2022/03/13 01:28:32;;;;;;;10.55;4.03;;;;;;;;;;5029949;28;20034;-75
2022/03/13 01:31:00;;;;;;;8.43;4.60;;;;;;;;;;5032618;28;20456;-75
2022/03/13 01:33:26;;;;;;;10.02;3.83;;;;;;;;;;5032308;28;20025;-75
2022/03/13 01:35:52;;;;;;;8.40;4.38;;;;;;;;;;5033231;28;20025;-74
2022/03/13 01:38:19;;;;;;;7.35;4.10;;;;;;;;;;5032117;28;20068;-75
2022/03/13 01:40:45;;;;;;;10.43;4.95;;;;;;;;;;5029522;28;20056;-75
2022/03/13 01:43:12;;;;;;;10.02;4.75;;;;;;;;;;5027123;28;20468;-74
2022/03/13 01:45:38;;;;;;;10.02;4.45;;;;;;;;;;5024575;28;20026;-74
2022/03/13 01:48:04;;;;;;;10.18;5.28;;;;;;;;;;5025434;28;20026;-74
2022/03/13 01:50:31;;;;;;;12.38;6.13;;;;;;;;;;5031404;28;20197;-74
2022/03/13 01:52:57;;;;;;;12.38;4.90;;;;;;;;;;5023009;28;20045;-74
2022/03/13 01:55:23;;;;;;;12.32;5.40;;;;;;;;;;5024789;28;20072;-74
2022/03/13 01:57:49;;;;;;;12.30;4.65;;;;;;;;;;5026228;28;20026;-74
2022/03/13 02:00:19;;;;;;;11.15;5.25;;;;;;;;;;5024574;28;20032;-74
2022/03/13 02:02:46;;;;;;;11.75;6.45;;;;;;;;;;5031964;28;20021;-74
2022/03/13 02:05:33;;;;;;;11.85;5.68;;;;;;;;;;5032699;28;20144;-74
2022/03/13 02:08:00;;;;;;;18.73;7.13;;;;;;;;;;5026315;28;20037;-74
2022/03/13 02:10:27;;;;;;;12.43;6.80;;;;;;;;;;5019613;28;20080;-74
2022/03/13 02:12:55;;;;;;;13.85;6.93;;;;;;;;;;5032954;28;20499;-76
2022/03/13 02:15:22;;;;;;;15.48;7.20;;;;;;;;;;5033156;28;20026;-75
2022/03/13 02:17:48;;;;;;;19.25;8.07;;;;;;;;;;5032968;28;20034;-75
2022/03/13 02:20:16;;;;;;;19.20;8.98;;;;;;;;;;5032705;28;20422;-74
2022/03/13 02:22:47;;;;;;;22.00;8.35;;;;;;;;;;5029975;28;20018;-75
2022/03/13 02:25:21;;;;;;;18.75;8.82;;;;;;;;;;5032661;28;20041;-75
2022/03/13 02:27:47;;;;;;;19.30;9.98;;;;;;;;;;5032263;28;20061;-75
2022/03/13 02:30:14;;;;;;;21.63;11.25;;;;;;;;;;5032686;28;20029;-75
2022/03/13 02:32:40;;;;;;;24.88;10.88;;;;;;;;;;5031964;28;20022;-74
2022/03/13 02:35:07;;;;;;;17.65;9.18;;;;;;;;;;5032554;28;20025;-74
2022/03/13 02:37:41;;;;;;;24.52;11.48;;;;;;;;;;5032642;28;20049;-74
2022/03/13 02:40:14;;;;;;;22.00;12.63;;;;;;;;;;5032837;28;20029;-74
2022/03/13 02:42:40;;;;;;;22.15;11.48;;;;;;;;;;5031370;28;20040;-74
2022/03/13 02:45:06;;;;;;;23.35;11.57;;;;;;;;;;5032642;28;20104;-74
2022/03/13 02:47:33;;;;;;;24.23;14.65;;;;;;;;;;5032308;28;20021;-75
2022/03/13 02:49:59;;;;;;;24.05;13.10;;;;;;;;;;5032239;28;20049;-75
2022/03/13 02:52:25;;;;;;;22.25;11.20;;;;;;;;;;5033090;28;20053;-74
2022/03/13 02:54:51;;;;;;;18.88;11.55;;;;;;;;;;5030094;28;20021;-74
2022/03/13 02:57:18;;;;;;;23.63;12.65;;;;;;;;;;5026647;28;20380;-74
2022/03/13 02:59:44;;;;;;;24.20;11.85;;;;;;;;;;5032310;28;20052;-74
2022/03/13 03:02:11;;;;;;;19.90;10.43;;;;;;;;;;5028093;28;20056;-76
2022/03/13 03:04:37;;;;;;;15.88;10.48;;;;;;;;;;5024736;28;20021;-74
2022/03/13 03:07:04;;;;;;;18.15;11.02;;;;;;;;;;5031223;28;20067;-74
2022/03/13 03:09:32;;;;;;;18.00;9.95;;;;;;;;;;5033650;28;20029;-74
2022/03/13 03:12:00;;;;;;;17.92;10.88;;;;;;;;;;5036134;28;20022;-74
2022/03/13 03:14:26;;;;;;;15.20;8.70;;;;;;;;;;5036144;28;20527;-75
2022/03/13 03:16:54;;;;;;;16.67;9.23;;;;;;;;;;5035563;28;20021;-75
2022/03/13 03:19:21;;;;;;;10.80;7.28;;;;;;;;;;5035149;28;20491;-75
2022/03/13 03:21:47;;;;;;;12.88;7.30;;;;;;;;;;5035062;28;20030;-75
2022/03/13 03:24:23;;;;;;;23.55;8.23;;;;;;;;;;5035275;28;20045;-74
2022/03/13 03:26:50;;;;;;;20.65;12.30;;;;;;;;;;5035753;28;20101;-75
2022/03/13 03:29:16;;;;;;;20.35;11.20;;;;;;;;;;5036178;28;20108;-75
2022/03/13 03:31:44;;;;;;;18.52;11.27;;;;;;;;;;5035165;28;20065;-74
2022/03/13 03:34:12;;;;;;;19.05;10.55;;;;;;;;;;5031690;28;20033;-75
2022/03/13 03:36:43;;;;;;;19.25;11.18;;;;;;;;;;5034347;28;20032;-75
2022/03/13 03:39:09;;;;;;;16.90;10.77;;;;;;;;;;5035671;28;20032;-74
2022/03/13 03:41:36;;;;;;;15.70;9.23;;;;;;;;;;5035608;28;20032;-74
2022/03/13 03:44:02;;;;;;;16.10;10.07;;;;;;;;;;5032593;28;20033;-74
2022/03/13 03:46:28;;;;;;;29.38;9.57;;;;;;;;;;5033594;28;20018;-76
2022/03/13 03:48:55;;;;;;;19.85;9.95;;;;;;;;;;5033034;28;20609;-76
2022/03/13 03:51:21;;;;;;;25.67;11.20;;;;;;;;;;5033134;28;20071;-74
2022/03/13 03:53:47;;;;;;;27.58;11.07;;;;;;;;;;5031490;28;20034;-74
2022/03/13 03:56:14;;;;;;;27.77;11.13;;;;;;;;;;5024960;28;20028;-74
2022/03/13 03:58:40;;;;;;;23.25;11.70;;;;;;;;;;5035400;28;20034;-75
2022/03/13 04:01:06;;;;;;;20.08;11.40;;;;;;;;;;5026114;28;20029;-76
2022/03/13 04:03:34;;;;;;;18.35;9.88;;;;;;;;;;5034354;28;20475;-74
2022/03/13 04:06:00;;;;;;;22.17;10.52;;;;;;;;;;5035272;28;20113;-74
2022/03/13 04:08:29;;;;;;;16.80;10.02;;;;;;;;;;5034216;28;20018;-74
2022/03/13 04:10:55;;;;;;;20.92;11.13;;;;;;;;;;5030833;28;20029;-75
2022/03/13 04:13:22;;;;;;;21.00;10.65;;;;;;;;;;5035018;28;20021;-75
2022/03/13 04:15:48;;;;;;;19.20;11.38;;;;;;;;;;5031684;28;20025;-75
2022/03/13 04:18:15;;;;;;;17.15;8.50;;;;;;;;;;5031484;28;20037;-75
2022/03/13 04:20:43;;;;;;;12.48;8.18;;;;;;;;;;5022327;28;20365;-75
2022/03/13 04:23:09;;;;;;;15.05;8.32;;;;;;;;;;5034288;28;20052;-74
2022/03/13 04:25:37;;;;;;;14.68;8.65;;;;;;;;;;5031041;28;20053;-76
2022/03/13 04:28:04;;;;;;;11.35;7.20;;;;;;;;;;5029271;28;20315;-75
2022/03/13 04:30:31;;;;;;;14.80;8.02;;;;;;;;;;5033895;28;20025;-76
2022/03/13 04:32:57;;;;;;;13.30;7.60;;;;;;;;;;5034133;28;20021;-74
2022/03/13 04:35:24;;;;;;;16.40;9.73;;;;;;;;;;5033818;28;20029;-75
2022/03/13 04:37:51;;;;;;;12.98;8.48;;;;;;;;;;5023462;28;20034;-74
2022/03/13 04:40:18;;;;;;;16.35;9.27;;;;;;;;;;5027650;28;20403;-76
2022/03/13 04:42:45;;;;;;;16.77;10.15;;;;;;;;;;5032004;28;20025;-75
2022/03/13 04:45:12;;;;;;;23.00;11.75;;;;;;;;;;5031855;28;20056;-77
2022/03/13 04:47:38;;;;;;;17.60;8.05;;;;;;;;;;5028636;28;20028;-75
2022/03/13 04:50:05;;;;;;;21.30;9.90;;;;;;;;;;5022641;28;20033;-75
2022/03/13 04:52:31;;;;;;;23.35;10.23;;;;;;;;;;5026443;28;20061;-76
2022/03/13 04:54:58;;;;;;;26.95;9.70;;;;;;;;;;5029466;28;20029;-75
2022/03/13 04:57:24;;;;;;;28.20;11.55;;;;;;;;;;5033481;28;20068;-75
2022/03/13 04:59:50;;;;;;;37.17;12.75;;;;;;;;;;5033640;28;20084;-73
2022/03/13 05:02:16;;;;;;;33.55;12.60;;;;;;;;;;5031240;28;20022;-75
2022/03/13 05:04:43;;;;;;;44.92;14.98;;;;;;;;;;5033078;28;20039;-75
2022/03/13 05:07:10;;;;;;;39.20;12.52;;;;;;;;;;5033353;28;20029;-75
2022/03/13 05:09:37;;;;;;;26.70;10.32;;;;;;;;;;5032837;28;20014;-75
2022/03/13 05:12:10;;;;;;;29.00;9.98;;;;;;;;;;5032727;28;20029;-77
2022/03/13 05:14:37;;;;;;;26.00;11.75;;;;;;;;;;5028835;28;20025;-75
2022/03/13 05:17:03;;;;;;;18.70;9.73;;;;;;;;;;5019405;28;20049;-74
2022/03/13 05:19:30;;;;;;;17.90;8.75;;;;;;;;;;5031439;28;20456;-74
2022/03/13 05:21:56;;;;;;;14.02;7.03;;;;;;;;;;5034131;28;20021;-75
2022/03/13 05:24:22;;;;;;;20.52;9.90;;;;;;;;;;5030314;28;20105;-75
2022/03/13 05:26:49;;;;;;;12.75;7.40;;;;;;;;;;5030730;28;20029;-75
2022/03/13 05:29:15;;;;;;;17.65;8.10;;;;;;;;;;5032867;28;20029;-74
2022/03/13 05:31:43;;;;;;;14.43;7.53;;;;;;;;;;5032759;28;20036;-75
2022/03/13 05:34:10;;;;;;;12.40;6.55;;;;;;;;;;5030929;28;20039;-75
2022/03/13 05:36:37;;;;;;;15.80;6.90;;;;;;;;;;5031997;28;20022;-76
2022/03/13 05:39:03;;;;;;;17.25;6.85;;;;;;;;;;5036214;28;20025;-76
2022/03/13 05:41:30;;;;;;;13.27;5.75;;;;;;;;;;5023200;28;20037;-75
2022/03/13 05:43:57;;;;;;;13.10;6.70;;;;;;;;;;5028036;28;20472;-75
2022/03/13 05:46:23;;;;;;;15.98;7.90;;;;;;;;;;5030680;28;20129;-75
2022/03/13 05:48:49;;;;;;;15.38;7.68;;;;;;;;;;5030271;28;20036;-77
2022/03/13 05:51:16;;;;;;;15.88;8.25;;;;;;;;;;5027432;28;20055;-76
2022/03/13 05:53:42;;;;;;;15.30;7.10;;;;;;;;;;5026737;28;20017;-75
2022/03/13 05:56:08;;;;;;;16.83;7.22;;;;;;;;;;5021834;28;20061;-75
2022/03/13 05:58:35;;;;;;;14.38;6.95;;;;;;;;;;5024282;28;20072;-76
2022/03/13 06:01:05;;;;;;;8.25;5.00;;;;;;;;;;5029203;28;20365;-74
2022/03/13 06:03:32;;;;;;;11.00;6.05;;;;;;;;;;5023183;28;20108;-75
2022/03/13 06:06:01;;;;;;;11.00;5.85;;;;;;;;;;5028202;28;20409;-75
2022/03/13 06:08:27;;;;;;;13.20;5.30;;;;;;;;;;5028522;28;20017;-74
2022/03/13 06:10:53;;;;;;;16.23;6.13;;;;;;;;;;5028555;28;20068;-75
2022/03/13 06:13:22;;;;;;;12.02;5.88;;;;;;;;;;5030586;28;20026;-76
2022/03/13 06:15:49;;;;;;;11.85;6.25;;;;;;;;;;5029515;28;20499;-76
2022/03/13 06:18:16;;;;;;;13.85;6.82;;;;;;;;;;5029769;28;20048;-76
2022/03/13 06:20:43;;;;;;;11.45;6.90;;;;;;;;;;5026167;28;20103;-75
2022/03/13 06:23:10;;;;;;;15.40;8.02;;;;;;;;;;5025400;28;21458;-75
2022/03/13 06:25:36;;;;;;;14.35;9.32;;;;;;;;;;5025209;28;20041;-75
2022/03/13 06:28:03;;;;;;;16.98;8.63;;;;;;;;;;5021395;28;20029;-76
2022/03/13 06:30:30;;;;;;;17.33;8.98;;;;;;;;;;5010546;28;20033;-75
2022/03/13 06:32:56;;;;;;;13.05;8.50;;;;;;;;;;5020522;28;20026;-76
2022/03/13 06:35:28;;;;;;;17.02;9.50;;;;;;;;;;5020383;28;20388;-76
2022/03/13 06:37:57;;;;;;;22.60;9.93;;;;;;;;;;5005475;28;20033;-76
2022/03/13 06:40:24;;;;;;;19.38;12.00;;;;;;;;;;5023715;28;20118;-75
2022/03/13 06:42:51;;;;;;;21.98;14.38;;;;;;;;;;5022884;28;20023;-74
2022/03/13 06:45:18;;;;;;;29.85;14.10;;;;;;;;;;5025894;28;20030;-76
2022/03/13 06:47:46;;;;;;;25.00;14.90;;;;;;;;;;5027213;28;20419;-75
2022/03/13 06:50:14;;;;;;;26.08;15.30;;;;;;;;;;5029233;28;20029;-75
2022/03/13 06:52:40;;;;;;;28.08;16.55;;;;;;;;;;5024670;28;20119;-75
2022/03/13 06:55:07;;;;;;;26.15;17.35;;;;;;;;;;5026783;28;20033;-75
2022/03/13 06:57:33;;;;;;;27.02;17.52;;;;;;;;;;5028513;28;20040;-75
2022/03/13 07:00:00;;;;;;;17.73;12.05;;;;;;;;;;5027769;28;20021;-74
2022/03/13 07:02:27;;;;;;;19.65;12.95;;;;;;;;;;5025120;28;20085;-73
2022/03/13 07:04:53;;;;;;;17.92;11.15;;;;;;;;;;5026934;28;20022;-74
2022/03/13 07:07:19;;;;;;;17.73;11.20;;;;;;;;;;5026478;28;20491;-74
2022/03/13 07:09:46;;;;;;;18.23;11.48;;;;;;;;;;5028230;28;20029;-74
2022/03/13 07:12:13;;;;;;;21.95;12.23;;;;;;;;;;5027470;28;20116;-75
2022/03/13 07:14:46;;;;;;;21.02;13.65;;;;;;;;;;5025302;28;20053;-75
2022/03/13 07:17:13;;;;;;;22.67;13.55;;;;;;;;;;5028850;28;20101;-74
2022/03/13 07:19:43;;;;;;;17.05;12.68;;;;;;;;;;5029859;28;20049;-73
2022/03/13 07:22:10;;;;;;;15.85;11.50;;;;;;;;;;5033178;28;20064;-75
2022/03/13 07:24:37;;;;;;;20.25;12.10;;;;;;;;;;5027334;28;20046;-75
2022/03/13 07:27:03;;;;;;;20.77;12.68;;;;;;;;;;5024423;28;20065;-75
2022/03/13 07:29:30;;;;;;;24.27;14.82;;;;;;;;;;5030356;28;20059;-74
2022/03/13 07:31:56;;;;;;;23.50;15.27;;;;;;;;;;5032299;28;20029;-75
2022/03/13 07:34:27;;;;;;;23.67;14.98;;;;;;;;;;5033171;28;20053;-75
2022/03/13 07:36:54;;;;;;;24.30;15.13;;;;;;;;;;5026213;28;20026;-75
2022/03/13 07:39:21;;;;;;;24.20;16.40;;;;;;;;;;5021085;28;20029;-75
2022/03/13 07:41:48;;;;;;;29.10;17.73;;;;;;;;;;5023531;28;20062;-74
2022/03/13 07:44:14;;;;;;;28.17;19.48;;;;;;;;;;5086116;22;20558;-75
2022/03/13 07:46:40;;;;;;;30.85;20.33;;;;;;;;;;5102620;28;20064;-76
2022/03/13 07:49:07;;;;;;;30.65;20.33;;;;;;;;;;5104865;28;20036;-75
2022/03/13 07:51:34;;;;;;;33.90;22.30;;;;;;;;;;5108999;28;20027;-76
2022/03/13 07:54:01;;;;;;;35.33;23.05;;;;;;;;;;5105219;28;20028;-75
2022/03/13 07:56:29;;;;;;;26.98;17.30;;;;;;;;;;5100388;28;20513;-75
2022/03/13 07:58:55;;;;;;;28.98;15.77;;;;;;;;;;5088455;28;20474;-75
2022/03/13 08:01:21;;;;;;;27.63;16.40;;;;;;;;;;5110404;28;20065;-76
2022/03/13 08:03:48;;;;;;;29.63;17.40;;;;;;;;;;5109950;28;20055;-75
2022/03/13 08:06:15;;;;;;;27.92;18.67;;;;;;;;;;5110795;28;20023;-75
2022/03/13 08:08:41;;;;;;;33.50;20.00;;;;;;;;;;5110802;28;20024;-76
2022/03/13 08:11:07;;;;;;;36.30;21.35;;;;;;;;;;5109371;28;20092;-76
2022/03/13 08:13:33;;;;;;;33.20;22.92;;;;;;;;;;5106219;28;20094;-75
2022/03/13 08:16:00;;;;;;;34.80;23.80;;;;;;;;;;5109996;28;20110;-75
2022/03/13 08:18:27;;;;;;;40.08;24.52;;;;;;;;;;5105596;28;20032;-75
2022/03/13 08:20:53;;;;;;;40.83;24.63;;;;;;;;;;5088749;28;20055;-75
2022/03/13 08:23:19;;;;;;;28.77;17.95;;;;;;;;;;5089295;28;20528;-74
2022/03/13 08:25:46;;;;;;;25.83;14.10;;;;;;;;;;5087209;28;20048;-76
2022/03/13 08:28:12;;;;;;;18.55;10.55;;;;;;;;;;5088653;28;20024;-76
2022/03/13 08:30:38;;;;;;;22.10;11.80;;;;;;;;;;5089803;28;20097;-75
2022/03/13 08:33:05;;;;;;;22.50;9.68;;;;;;;;;;5081482;28;20470;-74
2022/03/13 08:35:31;;;;;;;25.73;9.43;;;;;;;;;;5080884;28;20121;-75
2022/03/13 08:37:58;;;;;;;15.88;8.60;;;;;;;;;;5086364;28;20025;-75
2022/03/13 08:40:25;;;;;;;22.67;9.73;;;;;;;;;;5092575;28;20028;-75
2022/03/13 08:42:52;;;;;;;27.48;11.20;;;;;;;;;;5090506;28;20031;-75
2022/03/13 08:45:18;;;;;;;19.95;10.68;;;;;;;;;;5087847;28;20024;-74
2022/03/13 08:47:46;;;;;;;23.75;10.15;;;;;;;;;;5087628;28;20069;-75
2022/03/13 08:50:13;;;;;;;22.27;11.90;;;;;;;;;;5091013;28;20024;-75
2022/03/13 08:52:41;;;;;;;29.23;13.00;;;;;;;;;;5069858;28;20044;-75
2022/03/13 08:55:13;;;;;;;24.90;13.50;;;;;;;;;;5092259;28;20040;-75
2022/03/13 08:57:43;;;;;;;24.35;13.02;;;;;;;;;;5088005;28;20028;-75
2022/03/13 09:00:11;;;;;;;32.38;13.98;;;;;;;;;;5084467;28;20494;-75
2022/03/13 09:02:38;;;;;;;29.58;15.23;;;;;;;;;;5090052;28;20052;-75
2022/03/13 09:05:04;;;;;;;27.83;15.77;;;;;;;;;;5088966;28;20047;-76
2022/03/13 09:07:31;;;;;;;28.80;16.35;;;;;;;;;;5073963;28;20069;-75
2022/03/13 09:09:57;;;;;;;28.73;17.80;;;;;;;;;;5083900;28;20024;-76
2022/03/13 09:12:25;;;;;;;33.15;18.88;;;;;;;;;;5086993;28;20470;-76
2022/03/13 09:14:51;;;;;;;36.53;21.67;;;;;;;;;;5083054;28;20016;-76
2022/03/13 09:17:17;;;;;;;29.80;15.25;;;;;;;;;;5085750;28;20023;-76
2022/03/13 09:19:44;;;;;;;29.90;12.00;;;;;;;;;;5087533;28;20047;-76
2022/03/13 09:22:14;;;;;;;22.88;12.32;;;;;;;;;;5083796;28;20028;-76
2022/03/13 09:24:40;;;;;;;27.58;12.38;;;;;;;;;;5087081;28;20020;-76
2022/03/13 09:27:07;;;;;;;29.52;12.15;;;;;;;;;;5084272;28;20021;-76
2022/03/13 09:29:33;;;;;;;29.52;11.80;;;;;;;;;;5082791;28;20036;-76
2022/03/13 09:31:59;;;;;;;21.25;11.05;;;;;;;;;;5081157;28;20596;-76
2022/03/13 09:34:26;;;;;;;22.35;11.82;;;;;;;;;;5084123;28;20081;-75
2022/03/13 09:36:52;;;;;;;23.77;11.00;;;;;;;;;;5084709;28;20099;-76
2022/03/13 09:39:19;;;;;;;24.38;12.60;;;;;;;;;;5086355;28;20028;-76
2022/03/13 09:41:45;;;;;;;25.98;12.82;;;;;;;;;;5081761;28;20039;-76
2022/03/13 09:44:12;;;;;;;28.58;13.75;;;;;;;;;;5083740;28;20064;-76
2022/03/13 09:46:38;;;;;;;25.08;10.77;;;;;;;;;;5064908;28;20382;-75
2022/03/13 09:49:05;;;;;;;26.55;13.43;;;;;;;;;;5084199;28;20024;-74
2022/03/13 09:51:31;;;;;;;27.52;14.60;;;;;;;;;;5082221;28;20067;-76
2022/03/13 09:53:58;;;;;;;32.50;13.75;;;;;;;;;;5086836;28;20046;-76
2022/03/13 09:56:25;;;;;;;29.38;13.35;;;;;;;;;;5084425;28;20382;-75
2022/03/13 09:58:52;;;;;;;29.27;13.55;;;;;;;;;;5085154;28;20031;-76
2022/03/13 10:01:18;;;;;;;29.60;13.55;;;;;;;;;;5083753;28;20032;-76
2022/03/13 10:03:44;;;;;;;28.13;14.57;;;;;;;;;;5089002;28;20047;-75
2022/03/13 10:06:14;;;;;;;23.20;11.20;;;;;;;;;;5087824;28;20028;-77
2022/03/13 10:08:40;;;;;;;26.23;11.35;;;;;;;;;;5087266;28;20024;-75
2022/03/13 10:11:07;;;;;;;27.25;13.55;;;;;;;;;;5086478;28;20445;-76
2022/03/13 10:13:35;;;;;;;24.77;12.15;;;;;;;;;;5086742;28;20031;-76
2022/03/13 10:16:02;;;;;;;24.65;13.30;;;;;;;;;;5082775;28;20043;-76
2022/03/13 10:18:29;;;;;;;27.25;12.90;;;;;;;;;;5089748;28;20024;-78
2022/03/13 10:20:56;;;;;;;25.98;12.65;;;;;;;;;;5087255;28;20073;-75
2022/03/13 10:23:23;;;;;;;29.48;13.27;;;;;;;;;;5087902;28;20055;-76
2022/03/13 10:25:50;;;;;;;28.13;13.13;;;;;;;;;;5087124;28;20027;-75
2022/03/13 10:28:23;;;;;;;25.73;13.20;;;;;;;;;;5088078;28;20107;-75
2022/03/13 10:30:59;;;;;;;32.60;15.80;;;;;;;;;;5068211;28;20546;-75
2022/03/13 10:33:26;;;;;;;29.83;15.50;;;;;;;;;;5085768;28;20467;-76
2022/03/13 10:36:06;;;;;;;32.95;19.10;;;;;;;;;;5082243;28;20035;-77
2022/03/13 10:38:34;;;;;;;30.38;18.92;;;;;;;;;;5089047;28;20463;-76
2022/03/13 10:41:03;;;;;;;37.67;21.63;;;;;;;;;;5085104;28;20058;-76
2022/03/13 10:43:31;;;;;;;40.17;23.95;;;;;;;;;;5081201;28;20041;-76
2022/03/13 10:45:58;;;;;;;36.60;21.70;;;;;;;;;;5081914;28;20028;-76
2022/03/13 10:48:32;;;;;;;40.00;23.15;;;;;;;;;;5083674;28;20029;-74
2022/03/13 10:51:02;;;;;;;42.53;26.25;;;;;;;;;;5089458;28;20149;-74
2022/03/13 10:53:29;;;;;;;39.22;23.83;;;;;;;;;;5084647;28;20020;-75
2022/03/13 10:56:09;;;;;;;41.95;25.48;;;;;;;;;;5086872;28;20060;-74
2022/03/13 10:58:37;;;;;;;41.22;25.98;;;;;;;;;;5086535;28;20033;-75
2022/03/13 11:01:09;;;;;;;34.70;20.13;;;;;;;;;;5087148;28;20035;-75
2022/03/13 11:03:37;;;;;;;41.53;21.10;;;;;;;;;;5084155;28;20036;-74
2022/03/13 11:06:07;;;;;;;42.55;20.10;;;;;;;;;;5075183;28;20032;-75
2022/03/13 11:08:33;;;;;;;34.90;18.92;;;;;;;;;;5087527;28;20028;-75
2022/03/13 11:11:00;;;;;;;28.77;17.67;;;;;;;;;;5087714;28;20020;-75
2022/03/13 11:13:27;;;;;;;28.88;17.83;;;;;;;;;;5085055;28;20035;-75
2022/03/13 11:15:57;;;;;;;36.63;18.48;;;;;;;;;;5087928;28;20028;-74
2022/03/13 11:18:26;;;;;;;34.33;18.67;;;;;;;;;;5090238;28;20020;-75
2022/03/13 11:20:52;;;;;;;33.28;17.95;;;;;;;;;;5094302;28;20024;-75
2022/03/13 11:23:18;;;;;;;36.22;19.67;;;;;;;;;;5090226;28;20513;-75
2022/03/13 11:25:46;;;;;;;38.92;20.00;;;;;;;;;;5092842;28;20020;-75
2022/03/13 11:28:13;;;;;;;37.67;20.88;;;;;;;;;;5096245;28;20024;-74
2022/03/13 11:30:40;;;;;;;37.83;19.65;;;;;;;;;;5092368;28;20054;-75
2022/03/13 11:33:08;;;;;;;40.38;21.27;;;;;;;;;;5093473;28;20035;-74
2022/03/13 11:35:34;;;;;;;35.40;18.08;;;;;;;;;;5092157;28;20036;-75
2022/03/13 11:38:09;;;;;;;35.35;17.20;;;;;;;;;;5087576;28;20031;-75
2022/03/13 11:40:37;;;;;;;38.58;19.60;;;;;;;;;;5079902;28;20771;-75
2022/03/13 11:43:12;;;;;;;34.75;16.30;;;;;;;;;;5080273;28;20434;-74
2022/03/13 11:45:39;;;;;;;30.45;15.77;;;;;;;;;;5082522;28;20023;-75
2022/03/13 11:48:06;;;;;;;34.92;17.85;;;;;;;;;;5085041;28;20470;-75
2022/03/13 11:50:48;;;;;;;35.25;18.55;;;;;;;;;;5083113;28;20031;-75
2022/03/13 11:53:19;;;;;;;35.38;20.27;;;;;;;;;;5067004;28;20038;-75
2022/03/13 11:56:00;;;;;;;38.40;20.23;;;;;;;;;;5081518;28;20343;-75
2022/03/13 11:58:40;;;;;;;48.13;22.50;;;;;;;;;;5085507;28;20024;-75
2022/03/13 12:01:07;;;;;;;39.55;20.20;;;;;;;;;;5085837;28;20442;-75
2022/03/13 12:03:33;;;;;;;38.42;20.17;;;;;;;;;;5083797;28;20016;-75
2022/03/13 12:06:00;;;;;;;39.00;20.52;;;;;;;;;;5084212;28;20042;-75
2022/03/13 12:08:44;;;;;;;39.42;19.02;;;;;;;;;;5083839;28;20024;-74
2022/03/13 12:11:29;;;;;;;42.65;20.50;;;;;;;;;;5085260;28;20028;-75
2022/03/13 12:13:56;;;;;;;39.40;18.73;;;;;;;;;;5084600;28;20093;-73
2022/03/13 12:16:23;;;;;;;41.15;20.85;;;;;;;;;;5084910;28;20111;-74
2022/03/13 12:18:58;;;;;;;49.38;24.50;;;;;;;;;;5084947;28;20393;-78
2022/03/13 12:21:24;;;;;;;45.80;25.85;;;;;;;;;;5082895;28;20084;-76
2022/03/13 12:23:52;;;;;;;50.67;28.52;;;;;;;;;;5083588;28;20047;-73
2022/03/13 12:26:27;;;;;;;59.83;33.33;;;;;;;;;;5084073;28;20033;-75
2022/03/13 12:28:57;;;;;;;60.25;32.35;;;;;;;;;;5081175;28;20044;-75
2022/03/13 12:31:24;;;;;;;37.28;23.45;;;;;;;;;;5084934;28;20073;-75
2022/03/13 12:33:53;;;;;;;49.28;25.73;;;;;;;;;;5077483;28;20156;-74
2022/03/13 12:36:19;;;;;;;35.28;17.80;;;;;;;;;;5079461;28;20102;-74
2022/03/13 12:38:49;;;;;;;30.63;12.45;;;;;;;;;;5084445;28;20074;-73
2022/03/13 12:41:16;;;;;;;25.42;8.75;;;;;;;;;;5080949;28;20047;-76
2022/03/13 12:43:53;;;;;;;27.80;12.45;;;;;;;;;;5084911;28;20081;-74
2022/03/13 12:46:28;;;;;;;37.00;12.93;;;;;;;;;;5083207;28;20028;-74
2022/03/13 12:48:59;;;;;;;38.92;13.57;;;;;;;;;;5085467;28;20024;-74
2022/03/13 12:51:45;;;;;;;36.92;13.63;;;;;;;;;;5067873;28;20032;-75
2022/03/13 12:54:16;;;;;;;42.25;14.23;;;;;;;;;;5085781;28;20028;-74
2022/03/13 12:56:45;;;;;;;49.25;12.88;;;;;;;;;;5089308;28;20496;-74
2022/03/13 12:59:30;;;;;;;42.72;11.55;;;;;;;;;;5090504;28;20486;-75
2022/03/13 13:02:03;;;;;;;50.08;11.07;;;;;;;;;;5083138;28;20386;-75
2022/03/13 13:04:30;;;;;;;41.40;11.93;;;;;;;;;;5084536;28;20028;-75
2022/03/13 13:06:56;;;;;;;42.17;10.40;;;;;;;;;;5087464;28;20032;-75
2022/03/13 13:09:29;;;;;;;39.75;11.90;;;;;;;;;;5064967;28;20121;-75
2022/03/13 13:11:56;;;;;;;34.30;10.93;;;;;;;;;;5074757;28;20029;-75
2022/03/13 13:14:25;;;;;;;32.67;10.32;;;;;;;;;;5090669;28;20023;-75
2022/03/13 13:16:52;;;;;;;44.47;10.98;;;;;;;;;;5089101;28;20058;-76
2022/03/13 13:19:19;;;;;;;39.67;13.85;;;;;;;;;;5087161;28;20161;-76
2022/03/13 13:21:55;;;;;;;37.88;15.98;;;;;;;;;;5087594;28;20032;-75
2022/03/13 13:24:22;;;;;;;48.95;18.00;;;;;;;;;;5088008;28;20493;-75
2022/03/13 13:26:48;;;;;;;32.60;17.42;;;;;;;;;;5086730;28;20455;-75
2022/03/13 13:29:15;;;;;;;46.70;21.67;;;;;;;;;;5078868;28;20084;-75
2022/03/13 13:31:41;;;;;;;44.03;19.70;;;;;;;;;;5084464;28;20735;-76
2022/03/13 13:34:14;;;;;;;32.47;17.77;;;;;;;;;;5087999;28;20509;-77
2022/03/13 13:36:41;;;;;;;42.35;19.65;;;;;;;;;;5088086;28;20127;-75
2022/03/13 13:39:07;;;;;;;39.47;19.85;;;;;;;;;;5089551;28;20034;-74
2022/03/13 13:41:34;;;;;;;39.33;20.38;;;;;;;;;;5090776;28;20110;-74
2022/03/13 13:44:01;;;;;;;42.80;23.30;;;;;;;;;;5089564;28;20488;-75
2022/03/13 13:46:34;;;;;;;50.92;24.90;;;;;;;;;;5088730;28;20031;-75
2022/03/13 13:49:25;;;;;;;43.05;23.55;;;;;;;;;;5080952;28;20042;-74
2022/03/13 13:51:51;;;;;;;48.83;25.17;;;;;;;;;;5087098;28;20028;-74
2022/03/13 13:54:18;;;;;;;47.67;24.38;;;;;;;;;;5089635;28;20020;-75
2022/03/13 13:56:55;;;;;;;46.95;23.52;;;;;;;;;;5087010;28;20072;-74
2022/03/13 13:59:24;;;;;;;46.30;23.73;;;;;;;;;;5084295;28;20459;-74
2022/03/13 14:01:52;;;;;;;44.17;21.63;;;;;;;;;;5080573;28;20090;-77
2022/03/13 14:04:19;;;;;;;41.47;18.00;;;;;;;;;;5082365;28;20097;-74
2022/03/13 14:06:46;;;;;;;47.47;18.40;;;;;;;;;;5083958;28;20161;-75
2022/03/13 14:09:13;;;;;;;41.17;18.58;;;;;;;;;;5086263;28;20028;-74
2022/03/13 14:11:40;;;;;;;38.25;17.42;;;;;;;;;;5080563;28;20025;-75
2022/03/13 14:14:07;;;;;;;44.40;19.30;;;;;;;;;;5076399;28;20029;-75
2022/03/13 14:16:34;;;;;;;51.90;19.02;;;;;;;;;;5082119;28;20082;-75
2022/03/13 14:19:00;;;;;;;40.15;17.73;;;;;;;;;;5079849;28;20032;-75
2022/03/13 14:21:29;;;;;;;39.72;18.00;;;;;;;;;;5081246;28;20377;-75
2022/03/13 14:23:55;;;;;;;37.58;18.00;;;;;;;;;;5081085;28;20020;-75
2022/03/13 14:26:21;;;;;;;35.80;19.23;;;;;;;;;;5081314;28;20371;-76
2022/03/13 14:28:48;;;;;;;41.15;20.63;;;;;;;;;;5082248;28;20032;-76